Nearby METAR Reports

 

CYUL - Montreal/Dorval, Quebec, Canada
Distance from station: ENE 6km
Updated: 05/16/2021 05:00 EDT
Partly cloudy
Partly cloudy
 Wind from SSW
Wind: SSW 7 km/h
Temperature: 10°C
Wind Chill: 9°C
Dew Point: 4°C
Humidity: 67%
Barometer: 1021.7 hPa
Clouds: Partly cloudy
Visibility: 24 km
Cloud details: Few Clouds 762 m
Partly cloudy 4572 m
2021/05/16 09:00 CYUL 160900Z 21004KT 15SM FEW025 SCT150 10/04 A3017 RMK CU1AC3 CU TR SLP219
CWVQ - Ste Anne De Bell, Quebec, Canada
Distance from station: WSW 10km
Updated: 05/16/2021 05:00 EDT

 Wind from SW
Wind: SW 7 km/h
Temperature: 11°C
Dew Point: 4°C
Humidity: 62%
2021/05/16 09:00 CWVQ 160900Z AUTO 22004KT 11/04 RMK AO1 SLP220 T01070039 53009
 
CWTA - Mc Tavish (aut), Quebec, Canada
Distance from station: ENE 18km
Updated: 05/16/2021 05:00 EDT

 Wind from ENE
Wind: ENE 2 km/h
Temperature: 13°C
Dew Point: 4°C
Humidity: 55%
2021/05/16 09:00 CWTA 160900Z AUTO 07001KT 13/04 RMK AO1 SLP217 T01290043 53008
CYMX - Montreal/Mirabel, Quebec, Canada
Distance from station: NW 29km
Updated: 05/16/2021 05:00 EDT
Mostly cloudy
Mostly cloudy
 Wind from N
Wind: N 6 km/h
Temperature: 7°C
Dew Point: 4°C
Humidity: 81%
Barometer: 1021.7 hPa
Clouds: Mostly cloudy
Visibility: 40 km
Cloud details: Mostly cloudy 2957 m
Mostly cloudy 7620 m
2021/05/16 09:00 CYMX 160900Z 01003KT 25SM BKN097 BKN250 07/04 A3017 RMK AC5CI1 SLP221
 
CYHU - Saint Hubert Arp, Quebec, Canada
Distance from station: ENE 31km
Updated: 05/16/2021 05:00 EDT
Clear
Clear
 Wind from calm
Wind: Calm
Temperature: 9°C
Dew Point: 4°C
Humidity: 71%
Barometer: 1021.7 hPa
Clouds: Clear
Visibility: 14 km
2021/05/16 09:00 CYHU 160900Z AUTO 00000KT 9SM CLR 09/04 A3017 RMK SLP217
CWIT - St Clothilde (a, Quebec, Canada
Distance from station: SSE 33km
Updated: 05/16/2021 05:00 EDT

 Wind from W
Wind: W 7 km/h
Temperature: 12°C
Dew Point: 2°C
Humidity: 51%
2021/05/16 09:00 CWIT 160900Z AUTO 28004KT 12/02 RMK AO1 SLP216 T01180023 53009
 
CWIZ - L'acadie, Quebec, Canada
Distance from station: ESE 41km
Updated: 05/16/2021 05:00 EDT

 Wind from SW
Wind: SW 2 km/h
Temperature: 8°C
Dew Point: 3°C
Humidity: 71%
2021/05/16 09:00 CWIZ 160900Z AUTO 22001KT 08/03 RMK AO1 T00840026
CWHM - Varennes, Quebec, Canada
Distance from station: NE 45km
Updated: 10/25/2016 10:00 EDT
NOT Current

 Wind from W
Wind: W 19 km/h, Gust: 28 km/h
Temperature: 4°C
Wind Chill: 0°C
Dew Point: -2°C
Humidity: 65%
2016/10/25 14:00 CWHM 251400Z AUTO 28010G15KT 04/M02 RMK AO1 PK WND 28018/1302 T00391017
 
CWEW - L'assomption, Quebec, Canada
Distance from station: NE 50km
Updated: 05/16/2021 05:00 EDT

 Wind from NNW
Wind: NNW 6 km/h
Temperature: 9°C
Dew Point: 4°C
Humidity: 71%
2021/05/16 09:00 CWEW 160900Z AUTO 34003KT 09/04 RMK AO1 SLP222 T00880035 53007
CWBZ - St Anicet, Quebec, Canada
Distance from station: SW 52km
Updated: 05/16/2021 05:00 EDT

 Wind from N
Wind: N 7 km/h
Temperature: 10°C
Wind Chill: 9°C
Dew Point: 1°C
Humidity: 54%
2021/05/16 09:00 CWBZ 160900Z AUTO 36004KT 10/01 RMK AO1 SLP217 T01020014 52009
 
KFSO - Highgate, Vermont, USA
Distance from station: SE 79km
Updated: 05/16/2021 05:35 EDT
Mostly cloudy
Mostly cloudy
 Wind from calm
Wind: Calm
Temperature: 9°C
Dew Point: 4°C
Humidity: 71%
Barometer: 1022.7 hPa
Clouds: Mostly cloudy
Visibility: 16 km
Cloud details: Mostly cloudy 3353 m
2021/05/16 09:35 KFSO 160935Z AUTO 00000KT 10SM BKN110 09/04 A3020 RMK AO2 T00860040
CMGB - Granby, Quebec, Canada
Distance from station: E 81km
Updated: 05/16/2021 05:00 EDT

 Wind from SSW
Wind: SSW 2 km/h
Temperature: 8°C
Dew Point: 4°C
Humidity: 76%
2021/05/16 09:00 CMGB 160900Z AUTO 21001KT 08/04 RMK AO1 SLP218 T00790037 53010
 
CWJT - St Jovite (autob, Quebec, Canada
Distance from station: NW 88km
Updated: 05/16/2021 05:00 EDT

 Wind from calm
Wind: Calm
Temperature: 6°C
Dew Point: 5°C
Humidity: 93%
2021/05/16 09:00 CWJT 160900Z AUTO 00000KT 06/05 RMK AO1 SLP223 T00610047 51008
CWFQ - Frelighsburg, Quebec, Canada
Distance from station: ESE 90km
Updated: 05/16/2021 05:00 EDT

 Wind from S
Wind: S 6 km/h
Temperature: 11°C
Dew Point: 1°C
Humidity: 50%
2021/05/16 09:00 CWFQ 160900Z AUTO 18003KT 11/01 RMK AO1 SLP219 T01080008 53006
 
KPBG - Plattsburgh Afb, New York, USA
Distance from station: SSE 93km
Updated: 05/16/2021 04:53 EDT
Mostly cloudy
Mostly cloudy
 Wind from calm
Wind: Calm
Temperature: 8°C
Dew Point: 3°C
Humidity: 71%
Barometer: 1022 hPa
Clouds: Mostly cloudy
Visibility: 16 km
Cloud details: Mostly cloudy 3353 m
2021/05/16 08:53 KPBG 160853Z AUTO 00000KT 10SM BKN110 08/03 A3018 RMK AO2 SLP221 T00830033 53008
KMSS - Massena, New York, USA
Distance from station: SW 100km
Updated: 05/16/2021 04:53 EDT
Partly cloudy
Partly cloudy
 Wind from SSW
Wind: SSW 7 km/h
Temperature: 9°C
Wind Chill: 8°C
Dew Point: 0°C
Humidity: 54%
Barometer: 1023 hPa
Clouds: Partly cloudy
Visibility: 16 km
Cloud details: Partly cloudy 3353 m
2021/05/16 08:53 KMSS 160853Z AUTO 21004KT 10SM SCT110 09/00 A3021 RMK AO2 SLP231 T00890000 51010
 
CWBS - Lac St Pierre (a, Quebec, Canada
Distance from station: NE 106km
Updated: 05/16/2021 05:00 EDT

 Wind from N
Wind: N 17 km/h
Temperature: 12°C
Dew Point: 7°C
Humidity: 72%
2021/05/16 09:00 CWBS 160900Z AUTO 01009KT 12/07 RMK AO1 T01170071
KBTV - Burlington, Vermont, USA
Distance from station: SSE 121km
Updated: 05/16/2021 04:54 EDT
Clear
Clear
 Wind from E
Wind: E 6 km/h
Temperature: 10°C
Dew Point: 4°C
Humidity: 67%
Barometer: 1022.4 hPa
Clouds: Clear
Visibility: 16 km
2021/05/16 08:54 KBTV 160854Z AUTO 08003KT 10SM CLR 10/04 A3019 RMK AO2 SLP224 T01000044 53007
 
KSLK - Saranac Lake, New York, USA
Distance from station: SSW 121km
Updated: 05/16/2021 05:51 EDT
Mostly cloudy
Mostly cloudy
 Wind from calm
Wind: Calm
Temperature: 1°C
Dew Point: -1°C
Humidity: 87%
Barometer: 1023.4 hPa
Clouds: Mostly cloudy
Visibility: 16 km
Cloud details: Mostly cloudy 3353 m
2021/05/16 09:51 KSLK 160951Z AUTO 00000KT 10SM BKN110 01/M01 A3022 RMK AO2 SLP239 T00111011
CWNQ - Nicolet (autob), Quebec, Canada
Distance from station: NE 123km
Updated: 05/16/2021 05:00 EDT

 Wind from NNE
Wind: NNE 6 km/h
Temperature: 10°C
Dew Point: 7°C
Humidity: 82%
2021/05/16 09:00 CWNQ 160900Z AUTO 02003KT 10/07 RMK AO1 SLP218 T00970072 53007
 
KMWN - Mount Washington, New Hampshire, USA
Distance from station: SE 237km
Updated: 05/16/2021 04:51 EDT
Mostly cloudy
Mostly cloudy
 Wind from WNW
Wind: WNW 24 km/h
Temperature: 4°C
Wind Chill: -1°C
Dew Point: -4°C
Humidity: 56%
Clouds: Mostly cloudy
Visibility: 112 km
Cloud details: Few Clouds 305 m
Mostly cloudy 914 m
Mostly cloudy 2134 m
Mostly cloudy 3048 m
Mostly cloudy 5486 m
2021/05/16 08:51 KMWN 160851Z 29013KT 70SM FEW010 BKN030 BKN070 BKN100 BKN180 04/M04 RMK VIRGA DSNT N SE
CYVR - Vancouver Intl A, British Columbia, Canada
Distance from station: NW 3676km
Updated: 05/16/2021 05:00 EDT
Few Clouds
Few Clouds
 Wind from N
Wind: N 7 km/h
Temperature: 13°C
Dew Point: 10°C
Humidity: 82%
Barometer: 1015.9 hPa
Clouds: Few Clouds
Visibility: 32 km
Cloud details: Few Clouds 7315 m
2021/05/16 09:00 CYVR 160900Z 35004KT 20SM FEW240 13/10 A3000 RMK CI1 SLP160